PST,Max TemperatureF,Mean TemperatureF,Min TemperatureF,Max Dew PointF,MeanDew PointF,Min DewpointF,Max Humidity, Mean Humidity, Min Humidity, Max Sea Level PressureIn, Mean Sea Level PressureIn, Min Sea Level PressureIn, Max VisibilityMiles, Mean VisibilityMiles, Min VisibilityMiles, Max Wind SpeedMPH, Mean Wind SpeedMPH, Max Gust SpeedMPH,PrecipitationIn, CloudCover, Events, WindDirDegrees
2011-2-1,19,14,10,10,7,4,88,75,62,30.68,30.63,30.59,10,10,10,10,9,25,1.70,0,,74
2011-2-2,24,18,12,10,7,4,71,62,44,30.63,30.60,30.57,10,10,10,9,7,,0.46,1,,93
2011-2-3,39,29,19,40,32,9,100,91,62,30.62,30.48,30.42,10,2,0,10,6,24,0.33,8,Fog-Rain,289
2011-2-4,39,36,33,39,36,32,100,98,93,30.48,30.35,30.23,10,2,0,14,7,34,0.11,8,Fog-Rain,273
2011-2-5,33,30,28,32,30,28,100,97,93,30.42,30.34,30.29,10,1,0,12,8,24,0.05,8,Fog-Snow,266
2011-2-6,37,34,30,37,34,28,100,99,93,30.38,30.23,30.01,8,1,0,17,6,44,0.15,8,Fog-Rain-Snow,269
2011-2-7,33,30,26,34,27,25,100,96,92,30.24,30.09,29.96,4,0,0,22,12,45,0.12,8,Fog-Rain-Snow,262
2011-2-8,28,26,24,28,25,23,100,95,92,30.50,30.30,30.15,10,2,0,6,4,,0.09,8,Fog-Snow,238
2011-2-9,28,24,21,27,23,21,100,93,86,30.51,30.40,30.29,10,4,0,8,4,,0.13,6,Fog,250
2011-2-10,39,29,21,32,25,19,96,85,57,30.39,30.30,30.20,10,10,10,7,6,,0.33,0,,237
2011-2-11,41,36,32,31,28,24,85,70,55,30.20,30.12,30.04,10,10,10,8,2,21,0.18,4,,83
2011-2-12,44,36,28,34,27,16,100,80,36,30.03,29.80,29.66,10,4,0,22,7,46,0.22,6,Fog-Rain-Snow,266
2011-2-13,34,31,28,32,28,27,100,94,85,30.10,29.94,29.71,10,4,0,12,7,31,0.25,6,Fog-Snow,276
2011-2-14,33,30,28,34,30,26,100,97,86,29.75,29.55,29.45,10,2,0,13,6,28,0.06,8,Fog-Rain-Snow,272
2011-2-15,28,27,26,28,26,24,100,96,88,29.66,29.49,29.41,10,2,0,8,2,,0.08,8,Fog-Snow,286
2011-2-16,28,24,21,25,22,18,96,89,74,29.61,29.45,29.39,10,6,0,10,2,17,0.19,6,Fog-Snow,288
2011-2-17,30,24,19,24,21,18,100,92,72,29.73,29.61,29.51,10,5,0,4,0,,0.32,7,Fog-Snow,40
2011-2-18,28,22,17,25,20,16,100,91,78,29.99,29.79,29.64,10,7,1,7,2,,0.29,3,,80
2011-2-19,33,26,19,21,18,13,96,78,43,29.98,29.90,29.82,10,10,10,7,5,,0.30,0,,231
2011-2-20,28,23,18,20,17,13,93,79,53,29.99,29.92,29.79,10,9,4,9,5,,0.23,3,,248
2011-2-21,27,24,21,25,22,18,100,90,80,30.01,29.86,29.67,10,3,0,14,5,26,0.14,8,Fog-Snow,271
2011-2-22,23,21,19,22,19,16,100,93,86,29.91,29.74,29.61,6,1,0,15,9,37,0.14,8,Fog-Snow,268
2011-2-23,21,19,17,20,18,15,100,93,86,29.92,29.71,29.62,10,2,0,15,6,28,0.39,8,Fog-Snow,268
2011-2-24,18,12,6,16,11,3,93,89,79,30.16,29.82,29.65,10,3,0,10,4,17,1.02,7,Fog-Snow,90
2011-2-25,10,6,1,7,2,-2,92,85,79,30.17,30.04,29.91,10,8,1,8,5,,1.00,3,Snow,77
2011-2-26,24,13,3,22,12,1,100,90,79,30.03,29.78,29.61,10,3,0,14,7,26,0.09,7,Fog-Snow,266
2011-2-27,28,26,24,27,25,21,100,96,86,29.72,29.53,29.40,10,1,0,14,9,32,0.07,8,Fog-Snow,272
2011-2-28,28,24,21,27,23,19,100,94,86,29.91,29.60,29.37,10,2,0,12,7,28,0.15,8,Fog-Snow,259